Aviation Digital Data Service (ADDS)

Output produced by TAFs form (1955 UTC 06 December 2016)
found at http://aviationweather.gov/adds/tafs/
 
KHOB 061721Z 0618/0718 04011KT P6SM FEW150 SCT250 
     FM070100 13006KT P6SM SCT250